Time;durP1;ratioP1;P1;durP2;ratioP2;P2;SDS_P1;SDS_P2;PMS_P1;PMS_P2;Temp;Humidity;BMP_temperature;BMP_pressure;BME280_temperature;BME280_humidity;BME280_pressure;Samples;Min_cycle;Max_cycle;Signal;HPM_P1;HPM_P2
2022/04/23 00:01:56;;;;;;;12.65;7.38;;;9.70;99.90;;;;;;5032580;28;20039;-77
2022/04/23 00:04:21;;;;;;;13.73;7.20;;;9.70;99.90;;;;;;5033234;28;20425;-77
2022/04/23 00:06:48;;;;;;;16.95;7.45;;;9.80;99.90;;;;;;5050366;28;20032;-78
2022/04/23 00:09:13;;;;;;;12.35;7.43;;;9.70;99.90;;;;;;5051398;28;20045;-78
2022/04/23 00:11:39;;;;;;;19.38;7.55;;;9.70;99.90;;;;;;5036054;28;20502;-77
2022/04/23 00:14:06;;;;;;;13.85;7.40;;;9.80;99.90;;;;;;5054541;28;20037;-78
2022/04/23 00:16:32;;;;;;;12.00;7.88;;;9.80;99.90;;;;;;5055793;28;20049;-83
2022/04/23 00:18:58;;;;;;;14.07;9.23;;;9.70;99.90;;;;;;5035979;28;20032;-83
2022/04/23 00:21:24;;;;;;;12.68;8.18;;;9.80;99.90;;;;;;5036010;28;20045;-83
2022/04/23 00:23:50;;;;;;;13.63;9.48;;;9.80;99.90;;;;;;5052738;28;20479;-83
2022/04/23 00:26:16;;;;;;;16.08;8.85;;;9.80;99.90;;;;;;5039749;28;20052;-83
2022/04/23 00:28:43;;;;;;;14.95;9.35;;;10.20;99.90;;;;;;5070564;28;20041;-82
2022/04/23 00:31:09;;;;;;;15.23;8.90;;;9.80;99.90;;;;;;5055895;28;20045;-82
2022/04/23 00:33:38;;;;;;;16.55;10.00;;;9.80;99.90;;;;;;5036956;28;20045;-78
2022/04/23 00:36:05;;;;;;;13.23;9.30;;;9.70;99.90;;;;;;5035623;28;20036;-78
2022/04/23 00:38:33;;;;;;;16.85;9.80;;;9.70;99.90;;;;;;5055489;28;20037;-78
2022/04/23 00:40:59;;;;;;;13.55;9.30;;;9.60;99.90;;;;;;5053911;28;20519;-77
2022/04/23 00:43:30;;;;;;;16.08;9.63;;;9.60;99.90;;;;;;5040976;28;20068;-77
2022/04/23 00:45:57;;;;;;;13.70;8.68;;;9.60;99.90;;;;;;5065079;28;20049;-77
2022/04/23 00:48:24;;;;;;;14.95;9.73;;;9.50;99.90;;;;;;5054635;28;20044;-78
2022/04/23 00:50:58;;;;;;;15.50;9.13;;;9.50;99.90;;;;;;5036535;28;20475;-78
2022/04/23 00:53:25;;;;;;;14.23;9.38;;;9.50;99.90;;;;;;5052945;28;20041;-77
2022/04/23 00:55:52;;;;;;;15.55;9.20;;;9.40;99.90;;;;;;5053025;28;20064;-78
2022/04/23 00:58:19;;;;;;;15.50;9.70;;;9.40;99.90;;;;;;5030090;28;20037;-77
2022/04/23 01:00:46;;;;;;;15.90;9.88;;;9.40;99.90;;;;;;5053935;28;20044;-78
2022/04/23 01:03:13;;;;;;;15.85;8.98;;;9.40;99.90;;;;;;5050270;28;20483;-77
2022/04/23 01:05:46;;;;;;;14.05;9.25;;;9.40;99.90;;;;;;5052554;28;20033;-78
2022/04/23 01:08:15;;;;;;;13.13;8.77;;;9.40;99.90;;;;;;5059507;28;20048;-78
2022/04/23 01:10:42;;;;;;;16.42;9.13;;;9.30;99.90;;;;;;5051588;28;20123;-78
2022/04/23 01:13:08;;;;;;;17.98;8.82;;;9.40;99.90;;;;;;5052573;28;20103;-78
2022/04/23 01:15:34;;;;;;;13.57;9.20;;;9.30;99.90;;;;;;5051214;28;20037;-78
2022/04/23 01:18:00;;;;;;;15.13;8.98;;;9.30;99.90;;;;;;5067246;28;20037;-78
2022/04/23 01:20:26;;;;;;;15.95;9.10;;;9.20;99.90;;;;;;5018096;28;20045;-78
2022/04/23 01:22:51;;;;;;;15.25;9.02;;;9.80;99.90;;;;;;5052790;28;20048;-81
2022/04/23 01:25:17;;;;;;;17.00;9.32;;;9.20;99.90;;;;;;5051675;28;20136;-81
2022/04/23 01:27:45;;;;;;;16.70;9.38;;;9.20;99.90;;;;;;5051818;28;20075;-81
2022/04/23 01:30:12;;;;;;;16.58;10.15;;;9.00;99.90;;;;;;5035303;28;20069;-81
2022/04/23 01:36:42;;;;;;;14.95;9.88;;;9.10;99.90;;;;;;5048974;28;20403;-81
2022/04/23 01:39:07;;;;;;;15.50;10.23;;;9.00;99.90;;;;;;5043821;28;20049;-82
2022/04/23 01:41:33;;;;;;;14.38;9.27;;;9.00;99.90;;;;;;5070520;28;20036;-82
2022/04/23 01:43:59;;;;;;;17.02;9.70;;;9.00;99.90;;;;;;5051263;28;20047;-82
2022/04/23 01:46:24;;;;;;;15.27;9.73;;;9.10;99.90;;;;;;5035750;28;20040;-82
2022/04/23 01:48:50;;;;;;;15.63;10.07;;;8.90;99.90;;;;;;5035861;28;20033;-82
2022/04/23 01:51:16;;;;;;;21.90;10.52;;;8.90;99.90;;;;;;5018505;28;20036;-82
2022/04/23 01:53:41;;;;;;;15.48;9.80;;;8.80;99.90;;;;;;5053685;28;20036;-82
2022/04/23 01:56:07;;;;;;;14.07;10.13;;;8.80;99.90;;;;;;5036870;28;20044;-82
2022/04/23 01:58:33;;;;;;;15.60;9.88;;;8.70;99.90;;;;;;5034805;28;20116;-82
2022/04/23 02:01:00;;;;;;;15.85;10.32;;;;;;;;;;5034957;28;20175;-82
2022/04/23 02:03:28;;;;;;;14.98;10.38;;;8.10;99.90;;;;;;5052297;28;20052;-82
2022/04/23 02:05:54;;;;;;;15.73;10.18;;;8.60;99.90;;;;;;5050634;28;20043;-82
2022/04/23 02:08:19;;;;;;;16.40;11.30;;;8.60;99.90;;;;;;5046596;28;20430;-82
2022/04/23 02:10:47;;;;;;;18.77;11.40;;;8.60;99.90;;;;;;5049371;28;20048;-82
2022/04/23 02:13:13;;;;;;;15.50;11.43;;;8.80;99.90;;;;;;5035742;28;20064;-78
2022/04/23 02:15:40;;;;;;;20.23;10.98;;;8.60;99.90;;;;;;5053115;28;20075;-78
2022/04/23 02:18:07;;;;;;;16.55;11.35;;;8.60;99.90;;;;;;5067010;28;20052;-78
2022/04/23 02:20:33;;;;;;;19.17;11.05;;;;;;;;;;5064686;28;20360;-78
2022/04/23 02:22:58;;;;;;;14.50;10.75;;;8.60;99.90;;;;;;5028320;28;20040;-78
2022/04/23 02:25:24;;;;;;;17.13;11.77;;;8.60;99.90;;;;;;5054360;28;20106;-78
2022/04/23 02:27:50;;;;;;;20.55;11.88;;;8.50;99.90;;;;;;5051281;28;20068;-78
2022/04/23 02:30:19;;;;;;;16.80;12.07;;;8.90;99.90;;;;;;5069462;28;20109;-78
2022/04/23 02:32:45;;;;;;;15.48;12.02;;;8.50;99.90;;;;;;5058836;28;20028;-78
2022/04/23 02:35:12;;;;;;;17.13;12.05;;;8.70;99.90;;;;;;5050342;28;20041;-78
2022/04/23 02:37:38;;;;;;;16.42;11.85;;;8.50;99.90;;;;;;5050418;28;20053;-78
2022/04/23 02:40:05;;;;;;;18.83;12.07;;;8.50;99.90;;;;;;5052896;28;20068;-78
2022/04/23 02:42:33;;;;;;;14.75;12.18;;;8.50;99.90;;;;;;5049429;28;20083;-78
2022/04/23 02:45:01;;;;;;;17.90;12.57;;;8.60;99.90;;;;;;5051085;28;20383;-78
2022/04/23 02:47:40;;;;;;;16.30;12.32;;;8.50;99.90;;;;;;5051864;28;20423;-77
2022/04/23 02:50:06;;;;;;;20.52;12.88;;;8.60;99.90;;;;;;5025396;28;20082;-77
2022/04/23 02:52:32;;;;;;;17.95;13.27;;;8.50;99.90;;;;;;5016777;28;20040;-77
2022/04/23 02:54:58;;;;;;;15.32;12.68;;;8.50;99.90;;;;;;5045090;28;20371;-77
2022/04/23 02:57:23;;;;;;;19.17;13.90;;;8.60;99.90;;;;;;5051087;28;20033;-77
2022/04/23 02:59:49;;;;;;;18.85;13.10;;;8.50;99.90;;;;;;5050192;28;20029;-77
2022/04/23 03:02:15;;;;;;;18.90;13.43;;;8.50;99.90;;;;;;5054327;28;20690;-77
2022/04/23 03:04:42;;;;;;;20.27;13.25;;;8.50;99.90;;;;;;5049846;28;20039;-77
2022/04/23 03:07:10;;;;;;;19.13;13.02;;;8.50;99.90;;;;;;5050345;28;20486;-77
2022/04/23 03:09:37;;;;;;;19.27;13.40;;;8.40;99.90;;;;;;5059196;28;20470;-77
2022/04/23 03:12:03;;;;;;;21.27;13.50;;;8.60;99.90;;;;;;5060073;28;20041;-77
2022/04/23 03:14:28;;;;;;;17.10;13.15;;;8.50;99.90;;;;;;5034320;28;20102;-77
2022/04/23 03:16:54;;;;;;;20.13;12.88;;;8.40;99.90;;;;;;5062910;28;20470;-77
2022/04/23 03:19:20;;;;;;;18.95;13.05;;;8.50;99.90;;;;;;5053176;28;20490;-81
2022/04/23 03:21:45;;;;;;;21.20;13.77;;;8.50;99.90;;;;;;5051329;28;20079;-81
2022/04/23 03:24:11;;;;;;;18.83;13.80;;;8.50;99.90;;;;;;5049660;28;20124;-81
2022/04/23 03:26:37;;;;;;;19.85;14.00;;;8.50;99.90;;;;;;5033612;28;20095;-81
2022/04/23 03:29:04;;;;;;;17.83;13.07;;;8.50;99.90;;;;;;5035410;28;20040;-81
2022/04/23 03:31:30;;;;;;;19.27;13.07;;;8.60;99.90;;;;;;5049557;28;20052;-81
2022/04/23 03:33:56;;;;;;;17.33;12.20;;;8.60;99.90;;;;;;5032394;28;20036;-81
2022/04/23 03:36:21;;;;;;;20.10;13.60;;;8.60;99.90;;;;;;5032605;28;20127;-82
2022/04/23 03:38:48;;;;;;;19.65;12.65;;;8.60;99.90;;;;;;5049603;28;20483;-83
2022/04/23 03:41:13;;;;;;;18.45;12.68;;;8.60;99.90;;;;;;5034962;28;20491;-83
2022/04/23 03:43:39;;;;;;;21.52;13.32;;;8.70;99.90;;;;;;5035682;28;20071;-82
2022/04/23 03:46:04;;;;;;;17.67;12.10;;;9.50;99.90;;;;;;5036123;28;20037;-82
2022/04/23 03:48:30;;;;;;;17.13;12.25;;;9.00;99.90;;;;;;5056821;28;20047;-83
2022/04/23 03:50:56;;;;;;;16.55;12.32;;;8.70;99.90;;;;;;5052739;28;20056;-83
2022/04/23 03:53:22;;;;;;;16.00;11.77;;;8.70;99.90;;;;;;5054548;28;20041;-81
2022/04/23 03:55:47;;;;;;;16.95;12.25;;;8.70;99.90;;;;;;5020647;28;20037;-81
2022/04/23 03:58:13;;;;;;;19.70;13.25;;;8.70;99.90;;;;;;5054173;28;20040;-81
2022/04/23 04:00:39;;;;;;;18.67;12.82;;;8.60;99.90;;;;;;5037186;28;20494;-81
2022/04/23 04:03:05;;;;;;;17.63;12.68;;;8.60;99.90;;;;;;5051600;28;20041;-81
2022/04/23 04:05:31;;;;;;;14.93;12.00;;;8.70;99.90;;;;;;5054782;28;20055;-81
2022/04/23 04:07:57;;;;;;;16.80;11.98;;;9.10;99.90;;;;;;5038528;28;20045;-81
2022/04/23 04:10:23;;;;;;;17.25;12.35;;;8.60;99.90;;;;;;5056157;28;20119;-81
2022/04/23 04:12:50;;;;;;;17.08;11.82;;;8.70;99.90;;;;;;5037255;28;20372;-81
2022/04/23 04:15:17;;;;;;;16.42;11.82;;;8.60;99.90;;;;;;5055807;28;20051;-81
2022/04/23 04:17:47;;;;;;;17.13;11.85;;;8.60;99.90;;;;;;5060187;28;20036;-81
2022/04/23 04:20:13;;;;;;;15.27;11.07;;;8.50;99.90;;;;;;5066963;28;20036;-81
2022/04/23 04:22:40;;;;;;;17.35;11.82;;;8.50;99.90;;;;;;5037205;28;20049;-81
2022/04/23 04:25:07;;;;;;;15.55;12.02;;;8.50;99.90;;;;;;5051929;28;20055;-82
2022/04/23 04:27:34;;;;;;;15.60;11.45;;;8.50;99.90;;;;;;5052925;28;20072;-82
2022/04/23 04:30:01;;;;;;;16.05;11.73;;;8.50;99.90;;;;;;5047595;28;20047;-83
2022/04/23 04:32:27;;;;;;;18.27;12.88;;;8.50;99.90;;;;;;5057265;28;20066;-82
2022/04/23 04:34:52;;;;;;;17.63;11.90;;;8.50;99.90;;;;;;5047850;28;20468;-83
2022/04/23 04:37:18;;;;;;;19.35;12.75;;;8.50;99.90;;;;;;5047654;28;20056;-82
2022/04/23 04:39:44;;;;;;;18.33;11.82;;;8.50;99.90;;;;;;5047155;28;20124;-82
2022/04/23 04:42:11;;;;;;;16.45;12.00;;;8.50;99.90;;;;;;5036931;28;20124;-78
2022/04/23 04:44:38;;;;;;;16.88;12.02;;;8.50;99.90;;;;;;5052462;28;20568;-78
2022/04/23 04:47:04;;;;;;;16.10;11.55;;;8.50;99.90;;;;;;5053619;28;20671;-78
2022/04/23 04:49:30;;;;;;;13.05;11.43;;;8.50;99.90;;;;;;5051045;28;20045;-78
2022/04/23 04:51:56;;;;;;;16.73;11.77;;;8.60;99.90;;;;;;5054368;28;20468;-78
2022/04/23 04:54:22;;;;;;;17.15;12.13;;;8.60;99.90;;;;;;5053794;28;20037;-78
2022/04/23 04:56:49;;;;;;;14.98;11.50;;;8.70;99.90;;;;;;5036703;28;20064;-78
2022/04/23 04:59:15;;;;;;;15.73;11.90;;;8.70;99.90;;;;;;5021425;28;20067;-78
2022/04/23 05:01:40;;;;;;;16.27;11.50;;;8.80;99.90;;;;;;5063316;28;20076;-77
2022/04/23 05:04:06;;;;;;;16.90;11.60;;;9.00;99.90;;;;;;5034670;28;20048;-78
2022/04/23 05:06:32;;;;;;;15.02;11.27;;;9.20;99.90;;;;;;5052822;28;20041;-78
2022/04/23 05:08:58;;;;;;;14.00;10.90;;;9.30;99.90;;;;;;5019528;28;20048;-78
2022/04/23 05:11:24;;;;;;;14.38;11.38;;;9.30;99.90;;;;;;5050750;28;20033;-77
2022/04/23 05:13:51;;;;;;;14.52;11.27;;;9.40;99.90;;;;;;5038445;28;20092;-78
2022/04/23 05:16:17;;;;;;;14.90;10.25;;;9.60;99.90;;;;;;5046207;28;20117;-81
2022/04/23 05:18:43;;;;;;;15.57;10.88;;;9.70;99.90;;;;;;5058087;28;20042;-81
2022/04/23 05:21:09;;;;;;;15.10;10.63;;;9.80;99.90;;;;;;5050138;28;20037;-81
2022/04/23 05:23:35;;;;;;;13.13;10.15;;;9.90;99.90;;;;;;5035723;28;20041;-81
2022/04/23 05:26:01;;;;;;;14.65;10.77;;;9.90;99.90;;;;;;5035338;28;20501;-80
2022/04/23 05:28:27;;;;;;;14.35;10.70;;;10.10;99.90;;;;;;5048867;28;20541;-81
2022/04/23 05:30:53;;;;;;;13.23;10.18;;;10.00;99.90;;;;;;5051760;28;20044;-81
2022/04/23 05:33:19;;;;;;;11.68;9.98;;;10.00;99.90;;;;;;5032338;28;20090;-81
2022/04/23 05:35:45;;;;;;;14.70;10.50;;;10.00;99.90;;;;;;5051927;28;20495;-81
2022/04/23 05:38:10;;;;;;;15.18;9.95;;;10.00;99.90;;;;;;5052040;28;20083;-81
2022/04/23 05:40:36;;;;;;;13.65;10.95;;;10.10;99.90;;;;;;5037148;28;20045;-81
2022/04/23 05:43:02;;;;;;;13.73;10.70;;;10.10;99.90;;;;;;5056695;28;20040;-81
2022/04/23 05:45:29;;;;;;;12.30;10.25;;;10.10;99.90;;;;;;5053784;28;20041;-82
2022/04/23 05:47:55;;;;;;;12.73;10.75;;;10.20;99.90;;;;;;5058750;22;20041;-82
2022/04/23 05:50:22;;;;;;;13.32;10.07;;;10.30;99.90;;;;;;5051744;28;20462;-78
2022/04/23 05:52:48;;;;;;;13.90;10.85;;;10.30;99.90;;;;;;5035013;28;20479;-78
2022/04/23 05:55:14;;;;;;;14.65;10.98;;;10.30;99.90;;;;;;5034380;28;20040;-79
2022/04/23 05:57:39;;;;;;;11.13;9.70;;;10.30;99.90;;;;;;5018494;28;20044;-79
2022/04/23 06:00:07;;;;;;;12.45;9.48;;;10.40;99.90;;;;;;5051731;28;20033;-79
2022/04/23 06:02:33;;;;;;;11.90;9.98;;;10.50;99.90;;;;;;5051854;28;20108;-79
2022/04/23 06:04:59;;;;;;;15.43;11.00;;;10.60;99.90;;;;;;5035463;28;20040;-79
2022/04/23 06:07:25;;;;;;;11.93;9.57;;;10.70;99.90;;;;;;5048951;28;20052;-79
2022/04/23 06:09:51;;;;;;;13.75;9.90;;;11.00;99.90;;;;;;5050262;28;20040;-79
2022/04/23 06:12:17;;;;;;;12.50;9.70;;;11.30;99.90;;;;;;5034092;28;20103;-79
2022/04/23 06:14:44;;;;;;;12.00;9.57;;;11.60;99.90;;;;;;5051292;28;20029;-79
2022/04/23 06:17:12;;;;;;;11.52;9.25;;;11.80;99.90;;;;;;5053125;28;20108;-79
2022/04/23 06:19:42;;;;;;;12.98;8.93;;;12.00;99.90;;;;;;5052896;28;20045;-79
2022/04/23 06:22:08;;;;;;;11.73;8.73;;;12.30;99.90;;;;;;5050123;28;20056;-84
2022/04/23 06:24:34;;;;;;;12.73;8.57;;;12.50;99.90;;;;;;5051834;28;20048;-84
2022/04/23 06:27:00;;;;;;;10.68;9.05;;;12.90;99.90;;;;;;5050944;28;20139;-84
2022/04/23 06:29:26;;;;;;;10.95;8.77;;;13.30;99.90;;;;;;5034647;28;20112;-84
2022/04/23 06:31:52;;;;;;;9.43;8.00;;;13.60;99.90;;;;;;5051136;28;20606;-83
2022/04/23 06:34:20;;;;;;;11.07;8.55;;;14.10;99.90;;;;;;5050709;28;20044;-84
2022/04/23 06:36:45;;;;;;;14.77;8.95;;;14.60;99.90;;;;;;5034198;28;20029;-84
2022/04/23 06:39:11;;;;;;;9.38;7.90;;;14.80;99.90;;;;;;5051018;28;20094;-83
2022/04/23 06:41:37;;;;;;;9.30;7.85;;;15.30;99.90;;;;;;5050614;28;20094;-83
2022/04/23 06:44:03;;;;;;;10.15;8.05;;;15.60;99.90;;;;;;5034234;28;20430;-84
2022/04/23 06:46:29;;;;;;;10.88;8.38;;;16.40;99.90;;;;;;5033715;28;20037;-83
2022/04/23 06:48:55;;;;;;;10.52;7.75;;;16.40;99.90;;;;;;5050782;28;20094;-84
2022/04/23 06:51:21;;;;;;;9.65;7.75;;;16.50;99.90;;;;;;5035761;28;20049;-84
2022/04/23 06:53:47;;;;;;;9.48;7.50;;;16.90;99.90;;;;;;5035617;28;20114;-84
2022/04/23 06:56:13;;;;;;;9.45;8.02;;;16.90;98.00;;;;;;5052562;28;20396;-84
2022/04/23 06:58:39;;;;;;;13.10;8.02;;;16.80;97.90;;;;;;5028444;28;20128;-84
2022/04/23 07:01:04;;;;;;;10.02;7.95;;;16.60;97.50;;;;;;5046507;28;20116;-83
2022/04/23 07:03:30;;;;;;;9.43;7.45;;;16.80;98.10;;;;;;5032797;28;20045;-83
2022/04/23 07:05:56;;;;;;;8.80;7.90;;;17.10;97.90;;;;;;5032180;28;20098;-83
2022/04/23 07:08:22;;;;;;;9.80;7.80;;;17.40;96.50;;;;;;5032907;28;20087;-84
2022/04/23 07:10:48;;;;;;;10.68;8.40;;;17.60;95.60;;;;;;5032392;28;20043;-83
2022/04/23 07:13:15;;;;;;;10.02;7.78;;;17.70;95.90;;;;;;5032621;28;20116;-88
2022/04/23 07:15:41;;;;;;;11.02;8.10;;;17.50;95.70;;;;;;5052312;28;20052;-83
2022/04/23 07:18:08;;;;;;;9.82;8.15;;;17.60;95.20;;;;;;5057689;28;20048;-83
2022/04/23 07:20:34;;;;;;;10.40;8.23;;;17.90;94.30;;;;;;5033990;28;20127;-84
2022/04/23 07:25:45;;;;;;;10.57;7.97;;;18.20;94.10;;;;;;5048893;28;20045;-84
2022/04/23 07:28:10;;;;;;;9.38;8.38;;;18.90;95.70;;;;;;5049943;28;20047;-84
2022/04/23 07:30:37;;;;;;;10.85;8.38;;;18.70;95.40;;;;;;5049639;28;20033;-80
2022/04/23 07:33:04;;;;;;;10.80;8.02;;;18.90;93.00;;;;;;5049421;28;20068;-80
2022/04/23 07:38:22;;;;;;;12.02;8.13;;;19.50;91.20;;;;;;5048195;28;20041;-80
2022/04/23 07:40:51;;;;;;;12.32;8.60;;;19.40;90.30;;;;;;5064071;28;20099;-80
2022/04/23 07:43:18;;;;;;;9.57;8.02;;;19.00;90.50;;;;;;5048460;28;20077;-80
2022/04/23 07:45:45;;;;;;;9.75;8.23;;;19.10;90.10;;;;;;5031789;28;20044;-83
2022/04/23 07:48:12;;;;;;;9.55;7.55;;;19.20;90.10;;;;;;5048385;28;20442;-83
2022/04/23 07:50:41;;;;;;;10.10;8.30;;;19.10;88.20;;;;;;5032059;28;20045;-83
2022/04/23 07:53:11;;;;;;;9.85;7.35;;;19.80;88.70;;;;;;5048544;28;20047;-83
2022/04/23 07:55:38;;;;;;;10.93;7.57;;;20.20;87.60;;;;;;5049401;28;20052;-83
2022/04/23 07:58:05;;;;;;;15.05;7.90;;;20.30;85.10;;;;;;5049787;28;20040;-83
2022/04/23 08:00:34;;;;;;;9.88;7.43;;;20.50;82.30;;;;;;5034071;28;20029;-83
2022/04/23 08:03:03;;;;;;;8.73;6.90;;;20.30;82.80;;;;;;5055543;28;20045;-83
2022/04/23 08:05:30;;;;;;;9.55;7.35;;;20.70;80.70;;;;;;5048698;28;20043;-83
2022/04/23 08:07:55;;;;;;;11.82;7.68;;;21.10;80.40;;;;;;5050880;28;20049;-84
2022/04/23 08:10:21;;;;;;;11.63;7.47;;;21.00;78.50;;;;;;5051162;28;20090;-84
2022/04/23 08:12:47;;;;;;;8.15;7.35;;;20.30;79.30;;;;;;5047480;28;20049;-84
2022/04/23 08:15:13;;;;;;;10.68;7.53;;;20.60;76.70;;;;;;5032703;28;20411;-84
2022/04/23 08:17:39;;;;;;;10.90;7.63;;;21.10;79.30;;;;;;5049382;28;20429;-84
2022/04/23 08:20:06;;;;;;;10.48;7.30;;;21.30;76.50;;;;;;5033421;28;20123;-84
2022/04/23 08:22:32;;;;;;;10.18;8.13;;;21.40;76.90;;;;;;5048983;28;20072;-84
2022/04/23 08:24:58;;;;;;;8.15;6.95;;;21.20;74.90;;;;;;5032528;28;20155;-83
2022/04/23 08:27:23;;;;;;;9.05;7.82;;;20.90;76.10;;;;;;5049464;28;20518;-84
2022/04/23 08:32:36;;;;;;;11.02;8.05;;;21.60;74.40;;;;;;5061793;28;20102;-84
2022/04/23 08:35:05;;;;;;;11.70;7.28;;;21.50;74.00;;;;;;5051626;28;20437;-84
2022/04/23 08:37:32;;;;;;;9.13;7.28;;;21.70;75.00;;;;;;5053283;28;20095;-84
2022/04/23 08:39:58;;;;;;;9.20;7.05;;;21.50;74.00;;;;;;5036559;28;20418;-84
2022/04/23 08:42:24;;;;;;;9.07;7.57;;;21.70;75.00;;;;;;5064082;28;20041;-84
2022/04/23 08:44:53;;;;;;;9.82;8.00;;;22.30;72.80;;;;;;5047975;28;20040;-84
2022/04/23 08:47:22;;;;;;;8.10;7.22;;;22.20;73.50;;;;;;5051855;28;20503;-84
2022/04/23 08:49:56;;;;;;;7.85;6.70;;;22.60;72.10;;;;;;5047649;28;20499;-84
2022/04/23 08:52:34;;;;;;;9.45;7.07;;;23.10;69.00;;;;;;5052053;28;20376;-83
2022/04/23 08:55:01;;;;;;;8.25;7.40;;;23.40;69.00;;;;;;5035085;28;20131;-83
2022/04/23 08:57:28;;;;;;;8.93;7.22;;;23.20;67.40;;;;;;5041018;28;20094;-84
2022/04/23 08:59:56;;;;;;;9.30;7.10;;;23.10;69.40;;;;;;5028088;28;20045;-83
2022/04/23 09:02:24;;;;;;;8.27;7.38;;;23.20;68.30;;;;;;5035650;28;20041;-83
2022/04/23 09:04:50;;;;;;;8.75;6.93;;;22.90;68.00;;;;;;5032985;28;20475;-84
2022/04/23 09:07:25;;;;;;;10.68;7.53;;;23.10;68.20;;;;;;5050066;28;20048;-83
2022/04/23 09:09:53;;;;;;;9.73;7.10;;;22.90;67.60;;;;;;5066960;28;20451;-81
2022/04/23 09:12:24;;;;;;;9.63;7.53;;;23.30;67.60;;;;;;5051554;28;20044;-81
2022/04/23 09:14:51;;;;;;;10.57;7.63;;;23.20;65.00;;;;;;5033562;28;20037;-81
2022/04/23 09:25:44;;;;;;;9.32;7.30;;;22.90;66.00;;;;;;5053325;28;20119;-83
2022/04/23 09:28:17;;;;;;;10.15;7.45;;;23.80;66.90;;;;;;5049279;28;20044;-83
2022/04/23 09:30:43;;;;;;;9.38;7.50;;;24.80;65.30;;;;;;5037861;28;20048;-84
2022/04/23 09:33:10;;;;;;;10.88;7.57;;;24.80;62.60;;;;;;5032806;28;20121;-83
2022/04/23 09:35:50;;;;;;;12.77;7.60;;;24.50;64.20;;;;;;5033473;28;20365;-81
2022/04/23 09:38:19;;;;;;;8.60;6.95;;;24.90;61.40;;;;;;5067113;28;20080;-81
2022/04/23 09:40:56;;;;;;;10.00;6.72;;;24.60;60.20;;;;;;5067580;28;20249;-81
2022/04/23 09:43:30;;;;;;;13.10;6.97;;;24.50;61.00;;;;;;5047322;28;20048;-78
2022/04/23 09:46:01;;;;;;;10.52;6.88;;;24.00;61.10;;;;;;5049774;28;20051;-78
2022/04/23 09:48:27;;;;;;;9.73;6.63;;;24.00;61.10;;;;;;5035351;28;20056;-78
2022/04/23 09:50:52;;;;;;;7.47;6.40;;;23.90;61.30;;;;;;5053319;28;20059;-78
2022/04/23 09:53:20;;;;;;;12.07;6.95;;;23.30;60.00;;;;;;5037031;28;20438;-79
2022/04/23 09:55:47;;;;;;;11.60;7.45;;;23.80;61.30;;;;;;5036985;28;20406;-77
2022/04/23 09:58:14;;;;;;;9.90;7.38;;;22.50;60.10;;;;;;5052439;28;20041;-78
2022/04/23 10:00:42;;;;;;;11.02;7.13;;;22.90;61.50;;;;;;5053002;28;20048;-78
2022/04/23 10:03:09;;;;;;;10.30;7.68;;;23.50;59.80;;;;;;5036238;28;20098;-78
2022/04/23 10:05:40;;;;;;;8.77;7.82;;;24.00;60.70;;;;;;5053422;28;20386;-78
2022/04/23 10:08:11;;;;;;;9.52;7.35;;;23.80;59.40;;;;;;5036526;28;20487;-78
2022/04/23 10:10:52;;;;;;;10.20;7.03;;;23.90;59.50;;;;;;5052553;28;20068;-78
2022/04/23 10:13:20;;;;;;;13.15;7.18;;;23.80;58.10;;;;;;5051064;28;20056;-78
2022/04/23 10:15:47;;;;;;;10.80;6.80;;;23.50;59.30;;;;;;5036171;28;20064;-78
2022/04/23 10:18:14;;;;;;;9.40;7.38;;;24.30;60.60;;;;;;5053633;28;20045;-78
2022/04/23 10:20:40;;;;;;;7.82;7.03;;;24.80;58.30;;;;;;5045814;28;20041;-78
2022/04/23 10:23:35;;;;;;;9.93;7.32;;;24.50;56.90;;;;;;5052471;28;20041;-77
2022/04/23 10:26:38;;;;;;;16.38;7.28;;;24.70;56.50;;;;;;5049646;28;20178;-77
2022/04/23 10:29:11;;;;;;;9.27;7.45;;;24.50;58.00;;;;;;5040051;28;20032;-78
2022/04/23 10:31:38;;;;;;;10.90;7.15;;;24.00;59.40;;;;;;5035861;28;20045;-81
2022/04/23 10:34:04;;;;;;;9.85;7.13;;;24.60;58.60;;;;;;5065365;28;20036;-81
2022/04/23 10:36:30;;;;;;;9.50;6.90;;;25.20;57.90;;;;;;5048596;28;20038;-81
2022/04/23 10:39:19;;;;;;;10.48;7.25;;;25.80;57.90;;;;;;5051781;28;20052;-81
2022/04/23 10:41:45;;;;;;;12.13;7.63;;;26.10;58.00;;;;;;5036578;28;20048;-81
2022/04/23 10:44:11;;;;;;;10.27;7.35;;;26.40;56.90;;;;;;5052008;28;20116;-81
2022/04/23 10:46:42;;;;;;;9.02;7.60;;;26.30;56.60;;;;;;5038131;28;20051;-81
2022/04/23 10:49:18;;;;;;;10.57;7.68;;;25.90;56.50;;;;;;5042164;28;20411;-78
2022/04/23 10:51:48;;;;;;;9.68;7.55;;;25.90;57.20;;;;;;5048115;28;20045;-78
2022/04/23 10:54:19;;;;;;;9.90;7.07;;;25.90;56.00;;;;;;5043218;28;20045;-78
2022/04/23 10:56:53;;;;;;;9.30;7.90;;;26.20;55.60;;;;;;5016334;28;20042;-78
2022/04/23 10:59:40;;;;;;;10.30;8.00;;;25.50;55.70;;;;;;5040513;28;20045;-78
2022/04/23 11:02:13;;;;;;;9.43;6.95;;;25.40;56.50;;;;;;5042690;28;20072;-78
2022/04/23 11:13:29;;;;;;;9.07;7.60;;;25.00;56.40;;;;;;5048234;28;20103;-83
2022/04/23 11:16:16;;;;;;;8.48;7.57;;;25.30;55.50;;;;;;5036235;28;20030;-83
2022/04/23 11:18:42;;;;;;;7.95;6.88;;;25.40;55.60;;;;;;5050409;28;20119;-83
2022/04/23 11:21:14;;;;;;;9.70;7.95;;;25.80;54.20;;;;;;5052109;28;20056;-81
2022/04/23 11:23:45;;;;;;;9.02;7.55;;;25.10;54.60;;;;;;5052491;28;20056;-81
2022/04/23 11:26:12;;;;;;;9.18;7.47;;;25.30;56.00;;;;;;5051566;28;20410;-81
2022/04/23 11:28:40;;;;;;;12.60;8.35;;;25.60;54.80;;;;;;5035372;28;20479;-81
2022/04/23 11:31:11;;;;;;;9.20;8.23;;;25.40;54.70;;;;;;5047482;28;20057;-81
2022/04/23 11:33:48;;;;;;;9.57;8.15;;;25.40;56.40;;;;;;5047352;28;20091;-80
2022/04/23 11:36:13;;;;;;;9.93;7.72;;;26.20;55.60;;;;;;5025994;28;20097;-80
2022/04/23 11:38:44;;;;;;;13.48;8.77;;;26.70;55.40;;;;;;5025764;28;20033;-78
2022/04/23 11:41:10;;;;;;;11.43;7.68;;;27.10;52.90;;;;;;5031303;28;20107;-77
2022/04/23 11:43:39;;;;;;;11.48;7.80;;;26.60;53.50;;;;;;5036817;28;20065;-77
2022/04/23 11:46:07;;;;;;;9.90;7.57;;;26.50;53.30;;;;;;5040303;28;20429;-78
2022/04/23 11:48:41;;;;;;;10.77;7.82;;;26.30;53.30;;;;;;5033429;28;20119;-78
2022/04/23 11:51:06;;;;;;;8.45;7.53;;;25.80;53.00;;;;;;5038475;28;20041;-77
2022/04/23 11:53:58;;;;;;;16.63;8.30;;;25.80;55.20;;;;;;5048568;28;20037;-77
2022/04/23 11:56:29;;;;;;;9.98;7.35;;;26.30;54.20;;;;;;5029097;28;20029;-78
2022/04/23 11:59:09;;;;;;;8.68;7.38;;;26.70;54.10;;;;;;5034193;28;20120;-78
2022/04/23 12:01:38;;;;;;;8.00;7.20;;;26.90;52.80;;;;;;5031355;28;20068;-78
2022/04/23 12:04:04;;;;;;;10.60;7.85;;;26.70;52.80;;;;;;5031843;28;20042;-78
2022/04/23 12:06:44;;;;;;;8.35;7.50;;;26.10;51.30;;;;;;5037086;28;20048;-78
2022/04/23 12:09:11;;;;;;;11.07;8.32;;;25.20;52.00;;;;;;5053972;28;20033;-80
2022/04/23 12:11:37;;;;;;;10.20;7.82;;;24.60;53.70;;;;;;5055631;28;20522;-84
2022/04/23 12:14:03;;;;;;;11.30;6.97;;;24.30;54.40;;;;;;5038341;28;20108;-83
2022/04/23 12:16:37;;;;;;;7.85;7.05;;;25.00;54.00;;;;;;5053525;28;20044;-83
2022/04/23 12:19:07;;;;;;;13.15;7.28;;;25.40;52.40;;;;;;5055894;28;20028;-83
2022/04/23 12:21:36;;;;;;;10.57;7.40;;;25.60;52.60;;;;;;5054505;28;20040;-83
2022/04/23 12:24:02;;;;;;;11.32;7.53;;;25.80;54.10;;;;;;5052137;28;20373;-84
2022/04/23 12:26:36;;;;;;;10.00;7.68;;;24.90;52.80;;;;;;5052669;28;20137;-83
2022/04/23 12:43:21;;;;;;;11.55;7.30;;;23.80;55.00;;;;;;5068676;28;20111;-79
2022/04/23 12:45:48;;;;;;;10.95;7.80;;;24.00;55.50;;;;;;5046923;28;20056;-79
2022/04/23 12:48:14;;;;;;;8.88;7.60;;;24.00;55.20;;;;;;5053651;28;20072;-79
2022/04/23 12:50:41;;;;;;;10.90;7.28;;;23.50;56.10;;;;;;5054511;28;20068;-79
2022/04/23 12:53:06;;;;;;;11.27;7.13;;;22.70;56.20;;;;;;5051476;28;20048;-79
2022/04/23 12:55:36;;;;;;;9.27;7.18;;;21.70;57.30;;;;;;5045538;28;20029;-79
2022/04/23 12:58:09;;;;;;;9.73;7.07;;;21.30;59.90;;;;;;5031927;28;20044;-79
2022/04/23 13:00:42;;;;;;;12.02;6.97;;;21.50;60.60;;;;;;5051879;28;20044;-79
2022/04/23 13:05:49;;;;;;;9.35;6.28;;;21.30;57.30;;;;;;5052809;28;20064;-83
2022/04/23 13:11:24;;;;;;;11.07;6.97;;;21.20;58.10;;;;;;5049489;28;20055;-83
2022/04/23 13:13:44;;;;;;;10.23;6.68;;;21.10;59.30;;;;;;5054244;28;20037;-83
2022/04/23 13:16:11;;;;;;;8.13;6.85;;;21.40;60.10;;;;;;5052122;28;20033;-83
2022/04/23 13:18:37;;;;;;;9.57;7.05;;;21.60;60.80;;;;;;5047488;28;20048;-82
2022/04/23 13:21:05;;;;;;;9.57;6.78;;;21.50;58.10;;;;;;5032947;28;20056;-82
2022/04/23 13:23:32;;;;;;;8.32;7.03;;;21.50;59.10;;;;;;5050635;28;20394;-83
2022/04/23 13:25:57;;;;;;;11.05;6.57;;;21.40;58.20;;;;;;5043503;28;20123;-82
2022/04/23 13:28:25;;;;;;;17.02;6.63;;;21.40;58.80;;;;;;5034529;28;20115;-83
2022/04/23 13:30:51;;;;;;;16.02;6.50;;;21.40;59.00;;;;;;5050618;28;20052;-83
2022/04/23 13:33:17;;;;;;;6.90;5.80;;;21.30;58.50;;;;;;5035166;28;20479;-84